Time;durP1;ratioP1;P1;durP2;ratioP2;P2;SDS_P1;SDS_P2;PMS_P1;PMS_P2;Temp;Humidity;BMP_temperature;BMP_pressure;BME280_temperature;BME280_humidity;BME280_pressure;Samples;Min_cycle;Max_cycle;Signal;HPM_P1;HPM_P2
2022/08/03 00:02:09;;;;;;;4.87;4.20;;;22.50;96.30;;;;;;5052672;28;20437;-57
2022/08/03 00:04:36;;;;;;;7.97;4.60;;;22.40;96.60;;;;;;5052918;28;20488;-58
2022/08/03 00:07:03;;;;;;;6.63;4.47;;;22.30;97.00;;;;;;5052450;28;20456;-57
2022/08/03 00:09:31;;;;;;;6.97;4.30;;;22.20;97.30;;;;;;5052377;28;20485;-57
2022/08/03 00:11:58;;;;;;;4.83;4.33;;;22.30;97.40;;;;;;5052384;28;20449;-57
2022/08/03 00:14:25;;;;;;;4.93;4.33;;;22.20;97.90;;;;;;5052598;28;20456;-57
2022/08/03 00:16:54;;;;;;;5.00;4.60;;;22.30;98.10;;;;;;5052958;28;20802;-57
2022/08/03 00:19:21;;;;;;;6.67;4.70;;;22.40;98.00;;;;;;5052424;28;20487;-58
2022/08/03 00:21:48;;;;;;;4.37;3.97;;;22.50;98.20;;;;;;5052478;28;20544;-58
2022/08/03 00:24:15;;;;;;;5.10;4.70;;;22.50;98.30;;;;;;5052380;28;20449;-58
2022/08/03 00:26:42;;;;;;;6.10;5.07;;;22.30;98.50;;;;;;5052405;28;20477;-57
2022/08/03 00:29:10;;;;;;;6.93;6.03;;;22.10;99.10;;;;;;5052068;28;20481;-57
2022/08/03 00:31:37;;;;;;;5.80;4.77;;;22.00;99.60;;;;;;5052197;28;20961;-57
2022/08/03 00:34:05;;;;;;;5.20;4.73;;;22.00;99.90;;;;;;5052234;28;20426;-58
2022/08/03 00:36:33;;;;;;;5.10;4.70;;;22.00;99.90;;;;;;5052402;28;20765;-56
2022/08/03 00:39:00;;;;;;;6.27;5.27;;;22.20;99.90;;;;;;5052042;28;20930;-56
2022/08/03 00:41:27;;;;;;;7.87;4.70;;;22.20;99.90;;;;;;5052343;28;20504;-57
2022/08/03 00:43:54;;;;;;;8.53;5.20;;;22.30;99.90;;;;;;5051809;28;20481;-56
2022/08/03 00:46:22;;;;;;;6.03;4.60;;;22.20;99.90;;;;;;5052166;28;20426;-58
2022/08/03 00:48:49;;;;;;;5.97;5.10;;;22.10;99.90;;;;;;5052059;28;20477;-57
2022/08/03 00:51:18;;;;;;;5.00;4.50;;;22.10;99.90;;;;;;5051874;28;20944;-55
2022/08/03 00:53:45;;;;;;;5.47;5.00;;;22.20;99.90;;;;;;5053609;28;20445;-55
2022/08/03 00:56:14;;;;;;;5.00;4.53;;;22.20;99.90;;;;;;5055971;28;20536;-55
2022/08/03 00:58:43;;;;;;;5.10;4.70;;;22.30;99.90;;;;;;5055303;28;20921;-55
2022/08/03 01:01:11;;;;;;;5.30;4.80;;;22.30;99.90;;;;;;5055708;28;20473;-55
2022/08/03 01:03:38;;;;;;;4.73;4.33;;;22.20;99.90;;;;;;5055831;28;20476;-56
2022/08/03 01:06:12;;;;;;;5.20;4.63;;;22.30;99.90;;;;;;5055409;28;20918;-56
2022/08/03 01:08:46;;;;;;;4.93;4.40;;;22.30;99.90;;;;;;5055232;28;20802;-56
2022/08/03 01:11:24;;;;;;;7.33;4.73;;;22.20;99.90;;;;;;5055308;28;20580;-56
2022/08/03 01:13:58;;;;;;;4.50;4.10;;;22.40;99.90;;;;;;5055393;28;20425;-56
2022/08/03 01:16:31;;;;;;;5.23;4.73;;;22.30;99.90;;;;;;5055398;28;20417;-56
2022/08/03 01:19:07;;;;;;;5.70;4.67;;;22.20;99.90;;;;;;5055442;28;20428;-56
2022/08/03 01:21:40;;;;;;;7.00;5.00;;;22.10;99.90;;;;;;5055429;28;20476;-56
2022/08/03 01:24:22;;;;;;;6.83;4.37;;;22.30;99.90;;;;;;5055155;28;20429;-56
2022/08/03 01:27:02;;;;;;;6.60;4.70;;;22.10;99.90;;;;;;5055007;28;20472;-56
2022/08/03 01:30:02;;;;;;;4.73;4.33;;;22.00;99.90;;;;;;5054887;28;21001;-56
2022/08/03 01:32:39;;;;;;;5.20;4.70;;;21.80;99.90;;;;;;5055152;28;20437;-56
2022/08/03 01:35:11;;;;;;;5.17;4.77;;;21.80;99.90;;;;;;5055044;28;20425;-56
2022/08/03 01:37:43;;;;;;;5.00;4.60;;;21.80;99.90;;;;;;5054967;28;20461;-56
2022/08/03 01:40:13;;;;;;;5.40;4.17;;;21.70;99.90;;;;;;5054728;28;20809;-56
2022/08/03 01:42:42;;;;;;;6.40;4.20;;;21.60;99.90;;;;;;5055009;28;20525;-56
2022/08/03 01:45:16;;;;;;;4.53;4.23;;;21.50;99.90;;;;;;5054398;28;20985;-56
2022/08/03 01:47:45;;;;;;;6.10;4.57;;;21.60;99.90;;;;;;5054748;28;20473;-56
2022/08/03 01:50:15;;;;;;;5.60;5.00;;;21.50;99.90;;;;;;5054397;28;20519;-57
2022/08/03 01:52:44;;;;;;;4.93;4.53;;;21.50;99.90;;;;;;5054846;28;20445;-56
2022/08/03 01:55:13;;;;;;;6.83;4.73;;;21.40;99.90;;;;;;5054814;28;20481;-55
2022/08/03 01:57:43;;;;;;;5.03;4.53;;;21.40;99.90;;;;;;5054743;28;20430;-56
2022/08/03 02:00:14;;;;;;;4.97;4.57;;;21.50;99.90;;;;;;5054454;28;20991;-56
2022/08/03 02:02:42;;;;;;;8.13;4.90;;;21.50;99.90;;;;;;5054340;28;20429;-56
2022/08/03 02:05:12;;;;;;;5.87;4.90;;;21.30;99.90;;;;;;5054042;28;20910;-56
2022/08/03 02:07:41;;;;;;;5.40;4.40;;;21.30;99.90;;;;;;5054667;28;20475;-55
2022/08/03 02:10:12;;;;;;;6.70;5.40;;;21.30;99.90;;;;;;5054476;28;20497;-56
2022/08/03 02:12:42;;;;;;;5.43;5.00;;;21.30;99.90;;;;;;5054368;28;20557;-56
2022/08/03 02:15:12;;;;;;;5.87;3.97;;;21.30;99.90;;;;;;5054259;28;20964;-56
2022/08/03 02:17:40;;;;;;;4.97;4.57;;;21.40;99.90;;;;;;5054005;28;20945;-56
2022/08/03 02:20:11;;;;;;;4.67;4.20;;;21.50;99.90;;;;;;5053855;28;20544;-56
2022/08/03 02:22:40;;;;;;;5.27;4.50;;;21.40;99.90;;;;;;5054016;28;20430;-56
2022/08/03 02:25:09;;;;;;;5.37;4.00;;;21.40;99.90;;;;;;5054341;28;20476;-56
2022/08/03 02:27:39;;;;;;;6.83;4.73;;;21.30;99.90;;;;;;5053824;28;20803;-56
2022/08/03 02:30:09;;;;;;;5.30;4.80;;;21.20;99.90;;;;;;5053920;28;20488;-56
2022/08/03 02:32:40;;;;;;;5.23;4.37;;;21.30;99.90;;;;;;5054181;28;20449;-56
2022/08/03 02:35:12;;;;;;;6.50;5.10;;;21.20;99.90;;;;;;5054334;28;20774;-56
2022/08/03 02:37:43;;;;;;;4.80;4.33;;;21.30;99.90;;;;;;5053597;28;20442;-56
2022/08/03 02:40:13;;;;;;;6.43;5.40;;;21.30;99.90;;;;;;5053883;28;20473;-56
2022/08/03 02:42:41;;;;;;;7.30;5.73;;;21.40;99.90;;;;;;5053925;28;20452;-56
2022/08/03 02:45:12;;;;;;;6.00;5.10;;;21.30;99.90;;;;;;5053415;28;20834;-56
2022/08/03 02:47:44;;;;;;;5.70;4.70;;;21.30;99.90;;;;;;5053750;28;20438;-56
2022/08/03 02:50:13;;;;;;;6.57;4.90;;;21.20;99.90;;;;;;5053709;28;20497;-56
2022/08/03 02:52:41;;;;;;;5.30;4.80;;;21.30;99.90;;;;;;5053570;28;20437;-56
2022/08/03 02:55:10;;;;;;;6.47;5.77;;;21.00;99.90;;;;;;5053760;28;20452;-56
2022/08/03 02:57:39;;;;;;;6.00;4.87;;;20.90;99.90;;;;;;5053353;28;20917;-56
2022/08/03 03:00:08;;;;;;;6.00;5.10;;;20.80;99.90;;;;;;5053572;28;20461;-56
2022/08/03 03:02:36;;;;;;;6.03;5.50;;;20.80;99.90;;;;;;5052798;28;20536;-56
2022/08/03 03:05:06;;;;;;;5.53;5.03;;;20.80;99.90;;;;;;5053391;28;20441;-56
2022/08/03 03:07:35;;;;;;;5.90;5.30;;;20.80;99.90;;;;;;5053244;28;20445;-56
2022/08/03 03:10:03;;;;;;;6.20;5.60;;;20.90;99.90;;;;;;5053220;28;20489;-56
2022/08/03 03:12:33;;;;;;;6.33;5.30;;;20.80;99.90;;;;;;5053265;28;20456;-56
2022/08/03 03:15:00;;;;;;;5.53;4.97;;;20.80;99.90;;;;;;5052919;28;20452;-56
2022/08/03 03:17:28;;;;;;;4.93;4.40;;;20.90;99.90;;;;;;5052331;28;20540;-56
2022/08/03 03:19:56;;;;;;;6.63;6.03;;;20.90;99.90;;;;;;5052743;28;20992;-56
2022/08/03 03:22:26;;;;;;;8.17;5.20;;;20.90;99.90;;;;;;5052934;28;20816;-56
2022/08/03 03:24:54;;;;;;;5.60;5.10;;;20.80;99.90;;;;;;5053483;28;20483;-56
2022/08/03 03:27:22;;;;;;;7.87;5.70;;;20.80;99.90;;;;;;5052955;28;20540;-56
2022/08/03 03:29:49;;;;;;;6.77;5.30;;;20.80;99.90;;;;;;5052711;28;21048;-56
2022/08/03 03:32:17;;;;;;;8.77;5.70;;;20.70;99.90;;;;;;5053034;28;20449;-56
2022/08/03 03:34:44;;;;;;;5.80;5.30;;;20.80;99.90;;;;;;5053068;28;20483;-56
2022/08/03 03:37:11;;;;;;;6.90;5.13;;;20.90;99.90;;;;;;5052900;28;20528;-56
2022/08/03 03:39:40;;;;;;;10.27;5.20;;;21.00;99.90;;;;;;5052857;28;20560;-56
2022/08/03 03:42:07;;;;;;;6.60;5.27;;;21.00;99.90;;;;;;5053020;28;20432;-56
2022/08/03 03:44:35;;;;;;;7.63;5.27;;;21.10;99.90;;;;;;5052422;28;20491;-56
2022/08/03 03:47:02;;;;;;;6.17;5.00;;;21.10;99.90;;;;;;5052465;28;20818;-56
2022/08/03 03:49:31;;;;;;;5.07;4.67;;;21.00;99.90;;;;;;5052481;28;20572;-56
2022/08/03 03:51:58;;;;;;;5.50;5.00;;;21.00;99.90;;;;;;5052504;28;20520;-56
2022/08/03 03:54:25;;;;;;;7.60;5.93;;;20.90;99.90;;;;;;5052770;28;20449;-56
2022/08/03 03:56:54;;;;;;;6.53;5.53;;;20.70;99.90;;;;;;5052805;28;20449;-56
2022/08/03 03:59:21;;;;;;;6.70;5.80;;;20.70;99.90;;;;;;5052683;28;20464;-56
2022/08/03 04:01:49;;;;;;;5.23;4.73;;;20.60;99.90;;;;;;5052342;28;20552;-56
2022/08/03 04:12:38;;;;;;;9.47;5.27;;;20.90;99.90;;;;;;5052665;28;20437;-56
2022/08/03 04:15:08;;;;;;;5.90;5.30;;;21.00;99.90;;;;;;5052656;28;20450;-56
2022/08/03 04:17:35;;;;;;;6.13;5.53;;;20.90;99.90;;;;;;5052487;28;20607;-56
2022/08/03 04:20:04;;;;;;;6.63;5.93;;;20.90;99.90;;;;;;5052033;28;20472;-56
2022/08/03 04:22:32;;;;;;;6.07;5.47;;;20.90;99.90;;;;;;5052236;28;20956;-56
2022/08/03 04:25:03;;;;;;;8.77;5.27;;;21.00;99.90;;;;;;5052076;28;20485;-56
2022/08/03 04:27:36;;;;;;;7.40;6.57;;;20.80;99.90;;;;;;5053179;28;20459;-56
2022/08/03 04:30:06;;;;;;;5.27;4.77;;;20.70;99.90;;;;;;5055940;28;20993;-56
2022/08/03 04:32:35;;;;;;;5.93;5.27;;;20.80;99.90;;;;;;5056036;28;20980;-56
2022/08/03 04:35:03;;;;;;;5.70;5.13;;;20.80;99.90;;;;;;5056237;28;20463;-56
2022/08/03 04:37:38;;;;;;;6.00;5.47;;;20.80;99.90;;;;;;5055924;28;20503;-56
2022/08/03 04:40:09;;;;;;;6.50;5.30;;;20.60;99.90;;;;;;5056107;28;20473;-56
2022/08/03 04:42:38;;;;;;;5.77;5.00;;;20.60;99.90;;;;;;5056238;28;20459;-55
2022/08/03 04:45:11;;;;;;;5.83;5.27;;;20.70;99.90;;;;;;5055570;28;20484;-56
2022/08/03 04:47:39;;;;;;;5.83;5.23;;;20.70;99.90;;;;;;5055668;28;20548;-56
2022/08/03 04:50:07;;;;;;;7.20;6.17;;;20.60;99.90;;;;;;5055896;28;20548;-56
2022/08/03 04:52:35;;;;;;;7.57;5.40;;;20.70;99.90;;;;;;5055745;28;20944;-56
2022/08/03 04:55:02;;;;;;;6.80;6.10;;;20.70;99.90;;;;;;5055819;28;20524;-56
2022/08/03 04:57:29;;;;;;;6.97;6.00;;;20.70;99.90;;;;;;5056159;28;20958;-56
2022/08/03 04:59:56;;;;;;;8.10;5.00;;;20.70;99.90;;;;;;5055444;28;20462;-56
2022/08/03 05:02:25;;;;;;;5.20;4.70;;;20.90;99.90;;;;;;5055427;28;20456;-56
2022/08/03 05:04:52;;;;;;;5.50;5.00;;;20.90;99.90;;;;;;5055657;28;20452;-56
2022/08/03 05:07:19;;;;;;;9.30;5.53;;;20.90;99.90;;;;;;5056031;28;20540;-56
2022/08/03 05:09:47;;;;;;;5.73;5.23;;;21.00;99.90;;;;;;5055369;28;21033;-56
2022/08/03 05:12:14;;;;;;;7.40;4.97;;;21.10;99.90;;;;;;5055475;28;20457;-56
2022/08/03 05:14:41;;;;;;;6.57;5.90;;;21.10;99.90;;;;;;5055346;28;20830;-56
2022/08/03 05:17:09;;;;;;;7.10;5.70;;;21.20;99.90;;;;;;5055347;28;20456;-56
2022/08/03 05:19:38;;;;;;;6.33;5.37;;;21.30;99.90;;;;;;5055277;28;20445;-56
2022/08/03 05:22:05;;;;;;;5.90;5.30;;;21.30;99.90;;;;;;5055347;28;20445;-56
2022/08/03 05:24:32;;;;;;;6.40;5.80;;;21.30;99.90;;;;;;5054863;28;20449;-56
2022/08/03 05:26:59;;;;;;;8.20;6.00;;;21.40;99.90;;;;;;5054832;28;20955;-56
2022/08/03 05:29:26;;;;;;;6.90;6.10;;;21.40;99.90;;;;;;5054964;28;20567;-55
2022/08/03 05:31:54;;;;;;;8.33;5.93;;;21.50;99.90;;;;;;5055105;28;20532;-56
2022/08/03 05:34:21;;;;;;;7.40;6.20;;;21.70;99.90;;;;;;5055059;28;20449;-56
2022/08/03 05:36:49;;;;;;;6.53;5.60;;;21.70;99.90;;;;;;5054837;28;20941;-56
2022/08/03 05:39:16;;;;;;;5.50;5.00;;;21.80;99.90;;;;;;5053979;28;20793;-55
2022/08/03 05:41:44;;;;;;;7.23;5.97;;;22.00;99.90;;;;;;5054739;28;20548;-56
2022/08/03 05:44:11;;;;;;;6.57;5.20;;;22.20;99.90;;;;;;5054686;28;20512;-56
2022/08/03 05:46:38;;;;;;;9.53;6.00;;;22.30;99.90;;;;;;5054518;28;20871;-56
2022/08/03 05:49:05;;;;;;;5.97;5.37;;;22.30;99.90;;;;;;5054502;28;21017;-56
2022/08/03 05:51:32;;;;;;;6.50;6.00;;;22.30;99.90;;;;;;5054340;28;20491;-56
2022/08/03 05:54:01;;;;;;;6.90;5.47;;;22.30;99.90;;;;;;5054390;28;20465;-56
2022/08/03 05:56:28;;;;;;;6.77;6.17;;;22.40;99.90;;;;;;5054256;28;20485;-56
2022/08/03 05:58:55;;;;;;;7.17;6.43;;;22.50;99.90;;;;;;5054856;28;20533;-56
2022/08/03 06:01:22;;;;;;;5.87;5.20;;;22.60;99.90;;;;;;5054308;28;20782;-56
2022/08/03 06:03:51;;;;;;;10.10;5.83;;;22.70;99.90;;;;;;5054497;28;20848;-57
2022/08/03 06:06:18;;;;;;;7.10;5.70;;;22.70;99.90;;;;;;5054308;28;20785;-56
2022/08/03 06:08:47;;;;;;;7.23;6.10;;;22.80;99.90;;;;;;5054551;28;20793;-56
2022/08/03 06:11:16;;;;;;;8.37;6.07;;;22.80;99.90;;;;;;5054333;28;20916;-56
2022/08/03 06:13:44;;;;;;;6.43;5.70;;;22.80;99.90;;;;;;5053974;28;20449;-56
2022/08/03 06:16:11;;;;;;;5.83;5.27;;;22.80;99.90;;;;;;5054264;28;20461;-58
2022/08/03 06:18:39;;;;;;;6.80;5.73;;;22.90;99.90;;;;;;5054121;28;20548;-56
2022/08/03 06:21:06;;;;;;;10.03;5.63;;;23.00;99.90;;;;;;5054091;28;20469;-56
2022/08/03 06:23:33;;;;;;;6.23;5.63;;;23.10;99.90;;;;;;5053938;28;20457;-56
2022/08/03 06:26:01;;;;;;;6.50;5.87;;;23.10;99.90;;;;;;5053815;28;20483;-56
2022/08/03 06:28:29;;;;;;;6.57;4.97;;;23.20;99.90;;;;;;5053572;28;20477;-56
2022/08/03 06:30:57;;;;;;;6.30;5.70;;;23.20;99.90;;;;;;5053601;28;20574;-56
2022/08/03 06:33:25;;;;;;;5.53;5.10;;;23.30;99.90;;;;;;5053514;28;20997;-56
2022/08/03 06:35:52;;;;;;;7.73;5.50;;;23.30;99.90;;;;;;5053611;28;21018;-56
2022/08/03 06:38:19;;;;;;;8.10;6.30;;;23.40;99.90;;;;;;5053734;28;20449;-56
2022/08/03 06:40:46;;;;;;;8.07;5.90;;;23.50;99.90;;;;;;5053743;28;20469;-56
2022/08/03 06:43:14;;;;;;;4.67;4.27;;;23.60;99.90;;;;;;5053569;28;20536;-56
2022/08/03 06:45:43;;;;;;;8.13;6.30;;;23.70;99.90;;;;;;5053137;28;20477;-56
2022/08/03 06:48:11;;;;;;;11.03;5.37;;;23.80;99.90;;;;;;5053670;28;20453;-56
2022/08/03 06:50:40;;;;;;;7.00;5.03;;;23.90;99.90;;;;;;5052464;28;20496;-56
2022/08/03 06:53:09;;;;;;;5.30;4.80;;;23.90;99.90;;;;;;5053066;28;20449;-57
2022/08/03 06:55:36;;;;;;;6.80;4.97;;;23.90;99.90;;;;;;5053239;28;20485;-56
2022/08/03 06:58:03;;;;;;;7.50;4.70;;;24.00;99.90;;;;;;5053493;28;20471;-58
2022/08/03 07:00:31;;;;;;;6.57;5.00;;;24.10;99.90;;;;;;5053576;28;20465;-55
2022/08/03 07:02:59;;;;;;;7.03;5.50;;;24.10;99.90;;;;;;5053240;28;20938;-55
2022/08/03 07:05:27;;;;;;;7.10;4.80;;;24.30;99.90;;;;;;5053379;28;20540;-55
2022/08/03 07:07:56;;;;;;;8.40;5.27;;;24.30;99.90;;;;;;5053287;28;20457;-56
2022/08/03 07:10:23;;;;;;;8.70;7.30;;;24.30;99.90;;;;;;5053221;28;20493;-55
2022/08/03 07:12:50;;;;;;;4.90;4.50;;;24.40;99.90;;;;;;5052710;28;20460;-55
2022/08/03 07:15:17;;;;;;;6.13;4.80;;;24.40;99.90;;;;;;5053268;28;20510;-55
2022/08/03 07:17:45;;;;;;;5.30;4.80;;;24.50;99.90;;;;;;5053129;28;20476;-55
2022/08/03 07:20:14;;;;;;;4.90;4.50;;;24.50;99.90;;;;;;5052875;28;20475;-55
2022/08/03 07:22:41;;;;;;;5.43;4.90;;;24.60;99.90;;;;;;5052783;28;20453;-55
2022/08/03 07:25:09;;;;;;;5.13;4.63;;;24.60;99.90;;;;;;5053131;28;20956;-56
2022/08/03 07:27:37;;;;;;;8.00;4.47;;;24.70;99.90;;;;;;5052898;28;20449;-56
2022/08/03 07:30:08;;;;;;;4.83;4.40;;;24.80;99.90;;;;;;5052455;28;20981;-56
2022/08/03 07:32:35;;;;;;;5.60;4.70;;;24.80;99.90;;;;;;5052520;28;20901;-56
2022/08/03 07:35:02;;;;;;;8.43;4.60;;;24.90;99.90;;;;;;5053142;28;20448;-55
2022/08/03 07:37:31;;;;;;;5.00;4.60;;;25.00;99.90;;;;;;5052695;28;20445;-57
2022/08/03 07:39:59;;;;;;;4.73;4.30;;;25.10;99.90;;;;;;5052666;28;20981;-56
2022/08/03 07:42:27;;;;;;;4.97;4.63;;;25.20;99.90;;;;;;5052586;28;20445;-55
2022/08/03 07:44:54;;;;;;;6.07;5.10;;;25.30;99.90;;;;;;5052555;28;20568;-56
2022/08/03 07:47:24;;;;;;;7.90;4.50;;;25.50;99.90;;;;;;5052958;28;20448;-57
2022/08/03 07:49:51;;;;;;;5.23;4.73;;;25.90;99.90;;;;;;5052925;28;20880;-56
2022/08/03 07:55:06;;;;;;;4.80;4.10;;;27.50;99.90;;;;;;5052716;28;20413;-56
2022/08/03 07:57:33;;;;;;;4.23;3.93;;;28.40;99.90;;;;;;5052823;28;20467;-56
2022/08/03 08:00:00;;;;;;;8.40;4.50;;;28.90;98.70;;;;;;5052536;28;20461;-56
2022/08/03 08:02:27;;;;;;;4.17;3.77;;;29.40;97.20;;;;;;5053639;28;20476;-56
2022/08/03 08:04:55;;;;;;;4.10;3.80;;;;;;;;;;5056579;28;20518;-57
2022/08/03 08:07:22;;;;;;;4.40;3.53;;;30.40;95.20;;;;;;5056390;28;20445;-58
2022/08/03 08:09:49;;;;;;;3.37;3.13;;;30.60;94.30;;;;;;5056884;28;20473;-58
2022/08/03 08:12:18;;;;;;;4.23;3.83;;;31.10;93.40;;;;;;5056804;28;20464;-57
2022/08/03 08:14:45;;;;;;;3.33;3.00;;;;;;;;;;5056437;28;20455;-57
2022/08/03 08:17:13;;;;;;;6.13;3.70;;;31.30;91.50;;;;;;5056642;28;20937;-57
2022/08/03 08:19:40;;;;;;;3.90;2.93;;;31.90;91.00;;;;;;5056373;28;20425;-57
2022/08/03 08:22:07;;;;;;;3.37;2.93;;;32.10;90.00;;;;;;5056670;28;20926;-57
2022/08/03 08:24:34;;;;;;;4.20;3.00;;;;;;;;;;5056345;28;20552;-57
2022/08/03 08:27:01;;;;;;;3.93;3.40;;;32.40;85.90;;;;;;5056278;28;20980;-57
2022/08/03 08:29:30;;;;;;;5.90;3.80;;;32.70;85.10;;;;;;5055953;28;20540;-57
2022/08/03 08:31:57;;;;;;;3.10;2.80;;;32.80;84.20;;;;;;5056051;28;21012;-57
2022/08/03 08:34:24;;;;;;;6.60;3.40;;;32.50;83.20;;;;;;5056114;28;20973;-57
2022/08/03 08:36:52;;;;;;;6.10;3.37;;;32.80;82.70;;;;;;5056280;28;20476;-56
2022/08/03 08:39:19;;;;;;;3.53;3.20;;;32.40;83.00;;;;;;5056224;28;20504;-57
2022/08/03 08:41:46;;;;;;;6.57;3.10;;;32.20;82.40;;;;;;5055639;28;20445;-56
2022/08/03 08:44:13;;;;;;;3.20;2.90;;;32.30;82.00;;;;;;5055728;28;20477;-57
2022/08/03 08:46:42;;;;;;;6.23;3.50;;;32.40;81.00;;;;;;5055960;28;20429;-56
2022/08/03 08:49:11;;;;;;;3.50;3.20;;;32.20;80.40;;;;;;5055740;28;21007;-56
2022/08/03 08:51:40;;;;;;;3.10;2.90;;;32.10;83.50;;;;;;5055805;28;20499;-56
2022/08/03 08:54:09;;;;;;;3.00;2.80;;;33.00;78.90;;;;;;5055730;28;20481;-56
2022/08/03 08:56:38;;;;;;;7.90;3.73;;;;;;;;;;5055649;28;20484;-56
2022/08/03 08:59:06;;;;;;;3.00;2.80;;;33.70;76.90;;;;;;5055781;28;20548;-57
2022/08/03 09:01:33;;;;;;;4.37;3.40;;;33.80;75.00;;;;;;5055378;28;20469;-57
2022/08/03 09:04:06;;;;;;;4.43;2.57;;;33.90;73.00;;;;;;5055443;28;20578;-56
2022/08/03 09:06:33;;;;;;;2.67;2.40;;;33.90;74.50;;;;;;5055422;28;20567;-56
2022/08/03 09:09:00;;;;;;;2.83;2.63;;;34.30;70.90;;;;;;5055208;28;20449;-57
2022/08/03 09:11:27;;;;;;;3.10;2.27;;;34.30;70.00;;;;;;5055398;28;20484;-57
2022/08/03 09:13:55;;;;;;;3.03;2.47;;;34.10;68.10;;;;;;5054487;28;20532;-57
2022/08/03 09:16:23;;;;;;;2.37;2.17;;;33.80;69.00;;;;;;5055326;28;20475;-57
2022/08/03 09:18:51;;;;;;;2.87;2.57;;;33.80;68.20;;;;;;5055320;28;20445;-57
2022/08/03 09:21:23;;;;;;;2.30;2.10;;;34.30;69.60;;;;;;5055209;28;20523;-57
2022/08/03 09:23:51;;;;;;;3.63;2.50;;;34.90;65.20;;;;;;5055503;28;20575;-57
2022/08/03 09:26:23;;;;;;;2.40;2.20;;;35.60;65.40;;;;;;5055277;28;20805;-55
2022/08/03 09:28:58;;;;;;;2.77;2.07;;;34.80;60.60;;;;;;5055224;28;20502;-57
2022/08/03 09:31:32;;;;;;;2.70;2.50;;;35.10;61.60;;;;;;5055175;28;20509;-58
2022/08/03 09:34:02;;;;;;;3.03;2.10;;;34.20;62.90;;;;;;5055197;28;20454;-57
2022/08/03 09:36:38;;;;;;;2.73;2.53;;;34.30;63.00;;;;;;5055342;28;20452;-57
2022/08/03 09:39:09;;;;;;;4.83;2.60;;;33.80;63.60;;;;;;5054978;28;20527;-57
2022/08/03 09:41:37;;;;;;;2.40;2.20;;;34.10;64.60;;;;;;5054648;28;20803;-57
2022/08/03 09:44:05;;;;;;;2.60;2.27;;;34.70;62.90;;;;;;5054805;28;20867;-57
2022/08/03 09:46:32;;;;;;;2.43;2.23;;;34.90;60.80;;;;;;5055069;28;20453;-57
2022/08/03 09:49:12;;;;;;;2.93;2.40;;;35.40;60.70;;;;;;5054965;28;20441;-57
2022/08/03 09:51:41;;;;;;;2.87;2.67;;;36.10;59.00;;;;;;5054932;28;20576;-57
2022/08/03 09:54:09;;;;;;;2.23;2.03;;;36.10;57.50;;;;;;5054821;28;20528;-57
2022/08/03 09:56:40;;;;;;;2.70;2.20;;;35.70;56.80;;;;;;5054956;28;20876;-57
2022/08/03 09:59:08;;;;;;;3.30;2.27;;;35.50;57.20;;;;;;5054595;28;20453;-57
2022/08/03 10:01:37;;;;;;;3.43;2.60;;;34.80;57.80;;;;;;5054569;28;20468;-57
2022/08/03 10:04:04;;;;;;;2.07;1.90;;;35.10;57.40;;;;;;5054657;28;20457;-57
2022/08/03 10:06:32;;;;;;;2.40;2.20;;;35.20;57.30;;;;;;5054802;28;20450;-57
2022/08/03 10:09:11;;;;;;;4.13;2.77;;;35.00;57.40;;;;;;5054422;28;20429;-57
2022/08/03 10:11:40;;;;;;;2.37;2.17;;;35.70;57.10;;;;;;5054518;28;20518;-57
2022/08/03 10:14:08;;;;;;;2.53;2.33;;;34.60;56.90;;;;;;5054102;28;20480;-57
2022/08/03 10:16:37;;;;;;;2.30;2.10;;;35.10;56.50;;;;;;5053954;28;20952;-57
2022/08/03 10:19:06;;;;;;;3.10;2.10;;;35.10;56.00;;;;;;5054558;28;20540;-57
2022/08/03 10:21:34;;;;;;;2.13;1.93;;;35.30;56.60;;;;;;5053991;28;20894;-57
2022/08/03 10:24:04;;;;;;;2.53;2.00;;;35.40;56.20;;;;;;5054201;28;20452;-58
2022/08/03 10:26:35;;;;;;;2.40;2.20;;;35.20;56.00;;;;;;5054445;28;20448;-58
2022/08/03 10:29:06;;;;;;;4.27;2.20;;;35.40;55.80;;;;;;5054135;28;20956;-58
2022/08/03 10:31:39;;;;;;;2.00;1.90;;;35.50;55.70;;;;;;5053656;28;21011;-57
2022/08/03 10:34:11;;;;;;;2.90;2.20;;;36.10;55.40;;;;;;5053807;28;20901;-58
2022/08/03 10:36:40;;;;;;;2.50;2.30;;;36.90;54.80;;;;;;5054271;28;20433;-57
2022/08/03 10:39:08;;;;;;;4.20;3.00;;;36.80;54.00;;;;;;5053733;28;20539;-57
2022/08/03 10:41:41;;;;;;;2.20;2.07;;;36.80;54.00;;;;;;5053639;28;20973;-57
2022/08/03 10:44:12;;;;;;;2.37;2.17;;;36.50;54.40;;;;;;5053598;28;20489;-57
2022/08/03 10:46:40;;;;;;;2.20;2.10;;;36.50;54.00;;;;;;5054091;28;20794;-57
2022/08/03 10:49:09;;;;;;;2.73;2.53;;;36.40;53.20;;;;;;5053647;28;20456;-57
2022/08/03 10:51:36;;;;;;;2.77;2.23;;;36.50;54.00;;;;;;5053150;28;20575;-57
2022/08/03 10:54:03;;;;;;;2.70;2.50;;;36.70;53.60;;;;;;5053622;28;20533;-57
2022/08/03 10:59:59;;;;;;;2.60;2.40;;;35.60;53.40;;;;;;5053255;28;20491;-57
2022/08/03 11:03:00;;;;;;;3.30;2.40;;;35.40;53.70;;;;;;5048375;28;20527;-58
2022/08/03 11:05:28;;;;;;;2.70;2.50;;;35.40;53.70;;;;;;5053422;28;20417;-57
2022/08/03 11:08:19;;;;;;;2.33;2.10;;;36.40;53.50;;;;;;5053283;28;20543;-57
2022/08/03 11:10:46;;;;;;;2.50;2.30;;;36.60;53.70;;;;;;5053346;28;20849;-58
2022/08/03 11:13:17;;;;;;;5.97;2.53;;;36.70;52.50;;;;;;5052961;28;20455;-58
2022/08/03 11:15:46;;;;;;;2.73;2.53;;;36.90;53.30;;;;;;5052857;28;20445;-58
2022/08/03 11:18:15;;;;;;;3.47;2.27;;;36.50;53.20;;;;;;5052934;28;20941;-58
2022/08/03 11:20:51;;;;;;;3.80;2.57;;;36.50;52.60;;;;;;5052928;28;21033;-57
2022/08/03 11:23:40;;;;;;;4.03;2.43;;;36.80;53.40;;;;;;5052808;28;20502;-57
2022/08/03 11:26:17;;;;;;;2.57;2.37;;;36.80;52.30;;;;;;5053155;28;20471;-58
2022/08/03 11:28:47;;;;;;;4.80;2.50;;;36.50;52.20;;;;;;5035104;28;20440;-57
2022/08/03 11:31:48;;;;;;;2.87;2.67;;;36.40;52.40;;;;;;5053176;28;20543;-57
2022/08/03 11:34:16;;;;;;;3.50;2.80;;;36.10;52.50;;;;;;5049717;28;20560;-57
2022/08/03 11:37:24;;;;;;;2.40;2.20;;;36.50;52.00;;;;;;5052153;28;20944;-57
2022/08/03 11:39:54;;;;;;;2.37;2.20;;;37.10;52.20;;;;;;5053085;28;20559;-57
2022/08/03 11:42:42;;;;;;;3.00;2.80;;;37.10;51.10;;;;;;5052864;28;20597;-57
2022/08/03 11:45:11;;;;;;;2.30;2.10;;;37.30;51.80;;;;;;5052481;28;20839;-57
2022/08/03 11:47:40;;;;;;;2.53;2.33;;;36.80;51.90;;;;;;5052758;28;20543;-57
2022/08/03 11:50:08;;;;;;;2.60;2.20;;;37.10;51.10;;;;;;5052779;28;20547;-57
2022/08/03 11:52:39;;;;;;;3.30;2.10;;;37.40;51.50;;;;;;5052520;28;20831;-57
2022/08/03 11:55:14;;;;;;;3.33;2.10;;;37.50;51.40;;;;;;5052675;28;20429;-57
2022/08/03 11:57:42;;;;;;;2.53;2.33;;;37.40;51.30;;;;;;5052572;28;20471;-57
2022/08/03 12:00:31;;;;;;;2.00;1.90;;;36.80;51.30;;;;;;5052715;28;20548;-57
2022/08/03 12:03:01;;;;;;;2.50;2.30;;;36.90;51.20;;;;;;5052664;28;20453;-57
2022/08/03 12:05:37;;;;;;;4.17;2.60;;;36.90;51.40;;;;;;5052645;28;20429;-58
2022/08/03 12:08:05;;;;;;;4.23;2.50;;;36.70;50.60;;;;;;5052436;28;20441;-58
2022/08/03 12:10:33;;;;;;;3.47;3.17;;;36.40;51.30;;;;;;5052595;28;20471;-57
2022/08/03 12:13:01;;;;;;;4.23;2.93;;;36.20;51.20;;;;;;5052635;28;20484;-57
2022/08/03 12:15:32;;;;;;;3.57;2.23;;;36.00;51.50;;;;;;5052776;28;20532;-57
2022/08/03 12:18:00;;;;;;;2.50;2.23;;;35.80;51.40;;;;;;5052391;28;20433;-57
2022/08/03 12:20:29;;;;;;;2.67;2.47;;;36.40;51.70;;;;;;5052243;28;20969;-57
2022/08/03 12:23:03;;;;;;;2.90;2.70;;;36.80;51.30;;;;;;5052431;28;20446;-58
2022/08/03 12:25:30;;;;;;;2.60;2.40;;;36.60;50.80;;;;;;5052652;28;20461;-56
2022/08/03 12:28:11;;;;;;;2.90;2.70;;;36.30;51.10;;;;;;5052258;28;20441;-57
2022/08/03 12:30:40;;;;;;;2.77;2.57;;;36.10;51.50;;;;;;5052088;28;20468;-58
2022/08/03 12:33:20;;;;;;;2.70;2.50;;;36.50;51.60;;;;;;5052062;28;20492;-58
2022/08/03 12:35:48;;;;;;;2.53;2.30;;;36.70;51.20;;;;;;5052729;28;20455;-58
2022/08/03 12:38:21;;;;;;;2.50;2.30;;;36.70;50.70;;;;;;5052146;28;20448;-57
2022/08/03 12:41:03;;;;;;;2.40;2.30;;;35.90;51.20;;;;;;5052627;28;20500;-56
2022/08/03 12:43:31;;;;;;;3.30;2.50;;;35.70;51.60;;;;;;5052058;28;20436;-57
2022/08/03 12:46:16;;;;;;;3.07;2.57;;;35.30;51.80;;;;;;5052065;28;20583;-56
2022/08/03 12:48:59;;;;;;;2.77;2.57;;;35.00;52.10;;;;;;5053722;28;20414;-56
2022/08/03 12:51:27;;;;;;;3.70;2.27;;;35.20;52.20;;;;;;5053229;28;20944;-56
2022/08/03 12:53:55;;;;;;;2.93;2.40;;;35.60;52.30;;;;;;5055945;28;20452;-56
2022/08/03 12:56:22;;;;;;;5.10;3.50;;;36.20;52.10;;;;;;5055547;28;20454;-57
2022/08/03 12:58:50;;;;;;;2.30;2.10;;;36.30;51.70;;;;;;5055503;28;20539;-56
2022/08/03 13:01:21;;;;;;;2.33;2.13;;;36.60;51.70;;;;;;5055694;28;20582;-56
2022/08/03 13:03:49;;;;;;;3.90;2.50;;;36.50;51.80;;;;;;5055395;28;20429;-56
2022/08/03 13:06:18;;;;;;;3.00;2.70;;;36.40;51.40;;;;;;5055761;28;20445;-56
2022/08/03 13:08:47;;;;;;;2.53;2.33;;;36.30;51.50;;;;;;5055481;28;21013;-57
2022/08/03 13:11:25;;;;;;;2.30;2.10;;;36.00;51.40;;;;;;5055904;28;20518;-56
2022/08/03 13:13:53;;;;;;;3.00;2.70;;;36.20;51.70;;;;;;5055166;28;20445;-57
2022/08/03 13:16:23;;;;;;;3.07;2.70;;;36.10;51.70;;;;;;5055072;28;20528;-57